createdAt,value
2023-05-17T00:01:07.406Z,100.00
2023-05-17T00:04:10.990Z,100.00
2023-05-17T00:07:13.781Z,100.00
2023-05-17T00:10:16.879Z,100.00
2023-05-17T00:13:19.674Z,100.00
2023-05-17T00:16:22.701Z,100.00
2023-05-17T00:19:25.559Z,100.00
2023-05-17T00:22:28.781Z,100.00
2023-05-17T00:25:31.678Z,100.00
2023-05-17T00:28:34.887Z,100.00
2023-05-17T00:31:37.561Z,100.00
2023-05-17T00:34:40.595Z,100.00
2023-05-17T00:37:47.872Z,100.00
2023-05-17T00:40:51.259Z,100.00
2023-05-17T00:43:54.114Z,100.00
2023-05-17T00:46:59.852Z,100.00
2023-05-17T00:50:03.248Z,100.00
2023-05-17T00:53:06.312Z,100.00
2023-05-17T00:56:09.282Z,100.00
2023-05-17T00:59:13.957Z,100.00
2023-05-17T01:02:18.065Z,100.00
2023-05-17T01:05:21.168Z,100.00
2023-05-17T01:08:24.095Z,100.00
2023-05-17T01:11:32.717Z,100.00
2023-05-17T01:15:12.988Z,100.00
2023-05-17T01:18:34.950Z,100.00
2023-05-17T01:21:53.196Z,100.00
2023-05-17T01:25:19.069Z,100.00
2023-05-17T01:28:23.381Z,100.00
2023-05-17T01:31:28.667Z,100.00
2023-05-17T01:34:32.020Z,100.00
2023-05-17T01:37:35.228Z,100.00
2023-05-17T01:40:46.793Z,100.00
2023-05-17T01:44:09.121Z,100.00
2023-05-17T01:47:38.231Z,100.00
2023-05-17T01:50:43.395Z,100.00
2023-05-17T01:53:57.291Z,100.00
2023-05-17T01:57:02.186Z,100.00
2023-05-17T02:00:11.835Z,100.00
2023-05-17T02:03:20.852Z,100.00
2023-05-17T02:06:25.679Z,100.00
2023-05-17T02:09:28.500Z,100.00
2023-05-17T02:12:31.569Z,100.00
2023-05-17T02:15:34.696Z,100.00
2023-05-17T02:18:38.374Z,100.00
2023-05-17T02:21:42.431Z,100.00
2023-05-17T02:24:45.144Z,100.00
2023-05-17T02:27:48.277Z,100.00
2023-05-17T02:30:51.121Z,100.00
2023-05-17T02:33:55.019Z,100.00
2023-05-17T02:36:58.823Z,100.00
2023-05-17T02:40:01.878Z,100.00
2023-05-17T02:43:04.618Z,100.00
2023-05-17T02:46:11.954Z,100.00
2023-05-17T02:49:14.696Z,100.00
2023-05-17T02:52:17.757Z,100.00
2023-05-17T02:55:20.654Z,100.00
2023-05-17T02:58:25.234Z,100.00
2023-05-17T03:01:28.223Z,100.00
2023-05-17T03:04:33.545Z,100.00
2023-05-17T03:07:36.409Z,100.00
2023-05-17T03:10:39.557Z,100.00
2023-05-17T03:13:43.256Z,100.00
2023-05-17T03:16:47.750Z,100.00
2023-05-17T03:19:50.777Z,100.00
2023-05-17T03:22:54.022Z,100.00
2023-05-17T03:25:56.764Z,100.00
2023-05-17T03:29:00.065Z,100.00
2023-05-17T03:32:03.422Z,100.00
2023-05-17T03:35:07.134Z,100.00
2023-05-17T03:38:10.257Z,100.00
2023-05-17T03:41:13.492Z,100.00
2023-05-17T03:44:16.441Z,100.00
2023-05-17T03:47:19.637Z,100.00
2023-05-17T03:50:22.801Z,100.00
2023-05-17T03:53:26.142Z,100.00
2023-05-17T03:56:28.920Z,100.00
2023-05-17T03:59:32.025Z,100.00
2023-05-17T04:02:35.213Z,100.00
2023-05-17T04:05:40.130Z,100.00
2023-05-17T04:08:43.266Z,100.00
2023-05-17T04:11:46.299Z,100.00
2023-05-17T04:14:48.978Z,100.00
2023-05-17T04:17:52.246Z,100.00
2023-05-17T04:21:13.545Z,100.00
2023-05-17T04:24:17.010Z,100.00
2023-05-17T04:27:19.768Z,100.00
2023-05-17T04:30:24.345Z,100.00
2023-05-17T04:33:27.643Z,100.00
2023-05-17T04:36:31.173Z,100.00
2023-05-17T04:39:34.001Z,100.00
2023-05-17T04:42:37.434Z,100.00
2023-05-17T04:45:40.233Z,100.00
2023-05-17T04:48:43.733Z,100.00
2023-05-17T04:51:46.876Z,100.00
2023-05-17T04:54:50.427Z,100.00
2023-05-17T04:57:53.374Z,100.00
2023-05-17T05:00:56.980Z,100.00
2023-05-17T05:03:59.998Z,100.00
2023-05-17T05:07:04.355Z,100.00
2023-05-17T05:10:08.266Z,100.00
2023-05-17T05:13:13.241Z,100.00
2023-05-17T05:16:16.414Z,100.00
2023-05-17T05:19:20.210Z,100.00
2023-05-17T05:22:23.314Z,100.00
2023-05-17T05:25:27.969Z,100.00
2023-05-17T05:28:31.499Z,100.00
2023-05-17T05:31:35.007Z,100.00
2023-05-17T05:34:38.957Z,100.00
2023-05-17T05:37:45.533Z,100.00
2023-05-17T05:40:49.056Z,100.00
2023-05-17T05:43:52.119Z,100.00
2023-05-17T05:46:55.193Z,100.00
2023-05-17T05:49:58.479Z,100.00
2023-05-17T05:53:10.972Z,100.00
2023-05-17T05:56:21.779Z,100.00
2023-05-17T05:59:25.543Z,100.00
2023-05-17T06:02:28.606Z,100.00
2023-05-17T06:05:31.785Z,100.00
2023-05-17T06:08:34.707Z,100.00
2023-05-17T06:11:38.356Z,100.00
2023-05-17T06:14:41.256Z,100.00
2023-05-17T06:17:44.405Z,100.00
2023-05-17T06:20:47.309Z,100.00
2023-05-17T06:23:50.293Z,100.00
2023-05-17T06:26:53.056Z,100.00
2023-05-17T06:29:58.748Z,100.00
2023-05-17T06:33:01.959Z,100.00
2023-05-17T06:36:05.847Z,100.00
2023-05-17T06:39:08.810Z,100.00
2023-05-17T06:42:11.946Z,100.00
2023-05-17T06:45:15.782Z,100.00
2023-05-17T06:48:18.851Z,100.00
2023-05-17T06:51:21.794Z,100.00
2023-05-17T06:54:24.877Z,100.00
2023-05-17T06:57:27.726Z,100.00
2023-05-17T07:00:31.671Z,100.00
2023-05-17T07:03:35.888Z,100.00
2023-05-17T07:06:39.012Z,100.00
2023-05-17T07:09:41.897Z,100.00
2023-05-17T07:12:45.062Z,100.00
2023-05-17T07:15:47.765Z,100.00
2023-05-17T07:18:51.211Z,100.00
2023-05-17T07:21:54.031Z,100.00
2023-05-17T07:24:57.288Z,100.00
2023-05-17T07:28:00.023Z,100.00
2023-05-17T07:31:03.118Z,100.00
2023-05-17T07:34:05.992Z,100.00
2023-05-17T07:37:09.072Z,100.00
2023-05-17T07:40:12.305Z,100.00
2023-05-17T07:43:15.212Z,100.00
2023-05-17T07:46:18.200Z,100.00
2023-05-17T07:49:21.399Z,100.00
2023-05-17T07:52:24.214Z,100.00
2023-05-17T07:55:27.457Z,100.00
2023-05-17T07:58:30.980Z,100.00
2023-05-17T08:01:34.733Z,100.00
2023-05-17T08:04:37.871Z,100.00
2023-05-17T08:07:40.722Z,100.00
2023-05-17T08:10:43.798Z,100.00
2023-05-17T08:13:46.559Z,100.00
2023-05-17T08:16:51.379Z,99.19
2023-05-17T08:19:57.201Z,95.93
2023-05-17T08:23:00.231Z,99.96
2023-05-17T08:26:03.298Z,100.00
2023-05-17T08:29:06.590Z,100.00
2023-05-17T08:32:09.475Z,99.91
2023-05-17T08:35:14.565Z,98.86
2023-05-17T08:38:19.911Z,95.68
2023-05-17T08:41:23.751Z,93.58
2023-05-17T08:44:28.461Z,92.39
2023-05-17T08:47:34.362Z,90.47
2023-05-17T08:50:38.333Z,89.57
2023-05-17T08:53:42.783Z,87.69
2023-05-17T08:56:47.361Z,86.26
2023-05-17T08:59:52.475Z,86.51
2023-05-17T09:02:55.361Z,87.65
2023-05-17T09:06:24.196Z,84.97
2023-05-17T09:09:27.560Z,82.39
2023-05-17T09:12:43.461Z,80.31
2023-05-17T09:15:50.257Z,80.41
2023-05-17T09:18:58.110Z,81.31
2023-05-17T09:22:02.510Z,78.98
2023-05-17T09:25:06.280Z,79.04
2023-05-17T09:28:09.336Z,76.69
2023-05-17T09:31:15.462Z,76.68
2023-05-17T09:34:21.334Z,73.82
2023-05-17T09:37:26.508Z,75.12
2023-05-17T09:40:30.053Z,73.08
2023-05-17T09:43:33.294Z,71.92
2023-05-17T09:46:42.089Z,69.45
2023-05-17T09:49:47.042Z,69.52
2023-05-17T09:53:00.450Z,71.04
2023-05-17T09:56:05.830Z,72.97
2023-05-17T09:59:16.379Z,71.56
2023-05-17T10:02:37.335Z,72.32
2023-05-17T10:05:44.000Z,71.09
2023-05-17T10:08:53.138Z,70.77
2023-05-17T10:11:58.017Z,67.54
2023-05-17T10:15:01.979Z,67.04
2023-05-17T10:18:06.729Z,65.17
2023-05-17T10:21:10.898Z,66.16
2023-05-17T10:24:14.613Z,66.18
2023-05-17T10:27:17.687Z,69.06
2023-05-17T10:30:21.431Z,72.06
2023-05-17T10:33:27.327Z,69.06
2023-05-17T10:36:31.264Z,71.91
2023-05-17T10:39:38.576Z,69.29
2023-05-17T10:42:46.994Z,69.33
2023-05-17T10:45:50.989Z,69.56
2023-05-17T10:48:57.332Z,69.60
2023-05-17T10:52:12.282Z,65.07
2023-05-17T10:55:25.150Z,64.74
2023-05-17T10:58:28.931Z,63.75
2023-05-17T11:01:52.775Z,64.86
2023-05-17T11:05:00.637Z,64.82
2023-05-17T11:08:17.755Z,66.45
2023-05-17T11:11:20.922Z,68.53
2023-05-17T11:14:25.410Z,68.82
2023-05-17T11:17:35.923Z,72.78
2023-05-17T11:20:39.252Z,72.31
2023-05-17T11:23:46.913Z,73.15
2023-05-17T11:26:50.743Z,71.34
2023-05-17T11:29:55.290Z,71.68
2023-05-17T11:33:13.561Z,65.53
2023-05-17T11:36:24.227Z,63.32
2023-05-17T11:39:28.359Z,62.22
2023-05-17T11:42:31.166Z,57.49
2023-05-17T11:45:46.162Z,57.80
2023-05-17T11:48:52.253Z,59.69
2023-05-17T11:51:55.684Z,60.46
2023-05-17T11:54:59.241Z,58.60
2023-05-17T11:58:04.273Z,57.32
2023-05-17T12:02:11.236Z,59.37
2023-05-17T12:05:22.386Z,61.16
2023-05-17T12:08:25.216Z,62.78
2023-05-17T12:11:28.404Z,65.08
2023-05-17T12:14:31.669Z,66.56
2023-05-17T12:17:59.696Z,66.03
2023-05-17T12:21:10.033Z,63.23
2023-05-17T12:24:13.742Z,64.14
2023-05-17T12:27:26.572Z,60.86
2023-05-17T12:30:30.209Z,58.55
2023-05-17T12:33:37.081Z,58.74
2023-05-17T12:36:40.812Z,58.90
2023-05-17T12:39:44.217Z,56.48
2023-05-17T12:42:47.430Z,56.79
2023-05-17T12:45:50.799Z,56.09
2023-05-17T12:48:55.114Z,55.26
2023-05-17T12:52:04.265Z,53.41
2023-05-17T12:55:13.454Z,53.15
2023-05-17T12:58:16.382Z,58.08
2023-05-17T13:01:19.373Z,61.59
2023-05-17T13:04:33.297Z,64.01
2023-05-17T13:07:36.610Z,64.61
2023-05-17T13:10:39.415Z,66.87
2023-05-17T13:13:42.452Z,67.93
2023-05-17T13:16:46.055Z,67.80
2023-05-17T13:19:49.680Z,68.46
2023-05-17T13:22:52.701Z,71.48
2023-05-17T13:25:55.878Z,74.72
2023-05-17T13:28:58.640Z,75.34
2023-05-17T13:32:01.721Z,76.36
2023-05-17T13:35:05.244Z,77.82
2023-05-17T13:38:08.314Z,78.56
2023-05-17T13:41:11.112Z,78.02
2023-05-17T13:44:14.132Z,79.19
2023-05-17T13:47:17.290Z,79.27
2023-05-17T13:50:21.058Z,79.55
2023-05-17T13:53:23.907Z,78.32
2023-05-17T13:56:27.329Z,76.42
2023-05-17T13:59:30.289Z,76.79
2023-05-17T14:02:33.454Z,74.51
2023-05-17T14:05:36.819Z,77.73
2023-05-17T14:08:39.586Z,78.14
2023-05-17T14:11:42.719Z,78.38
2023-05-17T14:14:45.380Z,80.02
2023-05-17T14:17:49.859Z,79.90
2023-05-17T14:20:53.462Z,80.21
2023-05-17T14:23:56.471Z,79.84
2023-05-17T14:26:59.174Z,80.90
2023-05-17T14:30:02.279Z,78.34
2023-05-17T14:33:05.088Z,77.47
2023-05-17T14:36:08.300Z,78.16
2023-05-17T14:39:10.981Z,77.96
2023-05-17T14:42:13.990Z,75.65
2023-05-17T14:45:16.829Z,76.22
2023-05-17T14:48:20.313Z,76.50
2023-05-17T14:51:23.190Z,73.89
2023-05-17T14:54:29.861Z,73.49
2023-05-17T14:57:33.444Z,72.63
2023-05-17T15:00:36.561Z,73.58
2023-05-17T15:03:39.303Z,74.20
2023-05-17T15:06:43.609Z,74.42
2023-05-17T15:09:46.411Z,73.24
2023-05-17T15:12:49.446Z,73.14
2023-05-17T15:15:53.093Z,73.43
2023-05-17T15:18:57.738Z,75.35
2023-05-17T15:22:01.839Z,74.19
2023-05-17T15:25:06.270Z,74.64
2023-05-17T15:28:08.979Z,75.12
2023-05-17T15:31:12.070Z,75.42
2023-05-17T15:34:15.012Z,75.16
2023-05-17T15:37:18.252Z,75.72
2023-05-17T15:40:22.424Z,79.06
2023-05-17T15:43:25.362Z,77.81
2023-05-17T15:46:28.172Z,79.66
2023-05-17T15:49:32.368Z,76.82
2023-05-17T15:52:35.322Z,77.58
2023-05-17T15:55:38.464Z,76.61
2023-05-17T15:58:41.426Z,75.39
2023-05-17T16:01:46.446Z,76.81
2023-05-17T16:04:49.511Z,79.05
2023-05-17T16:07:52.293Z,78.20
2023-05-17T16:10:55.341Z,78.69
2023-05-17T16:13:58.182Z,80.53
2023-05-17T16:17:05.894Z,79.11
2023-05-17T16:20:09.001Z,81.01
2023-05-17T16:23:12.957Z,80.92
2023-05-17T16:26:15.904Z,79.42
2023-05-17T16:29:19.125Z,81.45
2023-05-17T16:32:22.054Z,80.53
2023-05-17T16:35:25.164Z,81.52
2023-05-17T16:38:27.888Z,81.02
2023-05-17T16:41:33.503Z,82.93
2023-05-17T16:44:45.296Z,82.47
2023-05-17T16:47:57.453Z,81.94
2023-05-17T16:51:02.959Z,84.54
2023-05-17T16:54:06.255Z,84.91
2023-05-17T16:57:09.218Z,84.90
2023-05-17T17:00:12.800Z,85.95
2023-05-17T17:03:15.792Z,86.21
2023-05-17T17:06:18.897Z,87.41
2023-05-17T17:09:21.823Z,87.63
2023-05-17T17:12:26.248Z,88.42
2023-05-17T17:15:29.637Z,88.89
2023-05-17T17:18:32.761Z,89.68
2023-05-17T17:21:39.021Z,90.14
2023-05-17T17:24:43.666Z,90.53
2023-05-17T17:27:47.156Z,90.90
2023-05-17T17:30:50.992Z,92.12
2023-05-17T17:33:53.923Z,92.79
2023-05-17T17:36:57.788Z,94.56
2023-05-17T17:40:01.028Z,93.73
2023-05-17T17:43:04.496Z,93.05
2023-05-17T17:46:08.576Z,93.75
2023-05-17T17:49:12.449Z,93.77
2023-05-17T17:52:39.184Z,94.33
2023-05-17T17:55:43.145Z,95.34
2023-05-17T17:59:16.325Z,95.63
2023-05-17T18:02:31.963Z,95.62
2023-05-17T18:05:35.873Z,95.98
2023-05-17T18:08:41.804Z,96.71
2023-05-17T18:11:45.629Z,96.98
2023-05-17T18:14:49.464Z,97.60
2023-05-17T18:17:54.902Z,96.10
2023-05-17T18:20:59.056Z,95.79
2023-05-17T18:24:03.685Z,94.55
2023-05-17T18:27:12.501Z,95.80
2023-05-17T18:30:17.522Z,97.01
2023-05-17T18:33:45.251Z,96.30
2023-05-17T18:37:29.945Z,96.17
2023-05-17T18:40:38.381Z,95.93
2023-05-17T18:44:03.108Z,96.58
2023-05-17T18:47:08.859Z,97.35
2023-05-17T18:50:13.847Z,97.43
2023-05-17T18:53:17.909Z,99.25
2023-05-17T18:56:25.316Z,97.87
2023-05-17T18:59:30.086Z,97.29
2023-05-17T19:02:37.783Z,97.64
2023-05-17T19:05:44.065Z,97.48
2023-05-17T19:08:50.512Z,96.69
2023-05-17T19:11:53.770Z,97.80
2023-05-17T19:14:57.087Z,97.64
2023-05-17T19:18:00.187Z,98.55
2023-05-17T19:21:13.025Z,99.04
2023-05-17T19:24:28.700Z,97.27
2023-05-17T19:27:52.112Z,97.20
2023-05-17T19:30:59.864Z,98.35
2023-05-17T19:34:06.228Z,98.33
2023-05-17T19:37:12.294Z,98.00
2023-05-17T19:40:19.086Z,97.74
2023-05-17T19:43:27.448Z,98.44
2023-05-17T19:46:56.539Z,97.71
2023-05-17T19:49:59.937Z,97.90
2023-05-17T19:53:17.663Z,98.34
2023-05-17T19:56:25.252Z,98.14
2023-05-17T19:59:33.578Z,99.57
2023-05-17T20:02:37.551Z,98.79
2023-05-17T20:05:42.546Z,98.54
2023-05-17T20:08:47.415Z,98.17
2023-05-17T20:11:51.167Z,98.61
2023-05-17T20:14:55.241Z,99.30
2023-05-17T20:17:59.246Z,99.57
2023-05-17T20:21:03.360Z,99.96
2023-05-17T20:24:07.648Z,100.00
2023-05-17T20:27:11.770Z,99.54
2023-05-17T20:30:15.235Z,100.00
2023-05-17T20:33:22.053Z,100.00
2023-05-17T20:36:25.274Z,100.00
2023-05-17T20:39:28.327Z,99.83
2023-05-17T20:42:31.273Z,100.00
2023-05-17T20:45:34.189Z,100.00
2023-05-17T20:48:38.983Z,99.62
2023-05-17T20:51:41.770Z,99.69
2023-05-17T20:54:44.905Z,100.00
2023-05-17T20:57:48.025Z,100.00
2023-05-17T21:00:52.982Z,100.00
2023-05-17T21:07:00.876Z,100.00
2023-05-17T21:10:03.700Z,100.00
2023-05-17T21:13:07.595Z,100.00
2023-05-17T21:16:10.411Z,100.00
2023-05-17T21:19:14.673Z,100.00
2023-05-17T21:22:18.215Z,99.97
2023-05-17T21:25:21.374Z,100.00
2023-05-17T21:28:25.067Z,100.00
2023-05-17T21:31:31.804Z,99.22
2023-05-17T21:34:34.647Z,99.77
2023-05-17T21:37:38.595Z,99.61
2023-05-17T21:40:41.638Z,99.58
2023-05-17T21:43:44.610Z,100.00
2023-05-17T21:46:47.471Z,100.00
2023-05-17T21:49:50.621Z,100.00
2023-05-17T21:52:53.354Z,100.00
2023-05-17T21:56:02.591Z,100.00
2023-05-17T21:59:06.045Z,100.00
2023-05-17T22:02:09.150Z,100.00
2023-05-17T22:05:13.288Z,100.00
2023-05-17T22:08:19.275Z,100.00
2023-05-17T22:11:32.642Z,100.00
2023-05-17T22:14:36.782Z,100.00
2023-05-17T22:17:51.185Z,100.00
2023-05-17T22:20:55.250Z,100.00
2023-05-17T22:23:59.259Z,99.03
2023-05-17T22:27:03.484Z,100.00
2023-05-17T22:30:07.797Z,100.00
2023-05-17T22:33:11.883Z,100.00
2023-05-17T22:36:19.187Z,100.00
2023-05-17T22:39:21.928Z,100.00
2023-05-17T22:42:24.945Z,100.00
2023-05-17T22:45:33.118Z,100.00
2023-05-17T22:48:37.514Z,100.00
2023-05-17T22:51:40.488Z,100.00
2023-05-17T22:54:43.712Z,100.00
2023-05-17T22:57:46.577Z,100.00
2023-05-17T23:00:52.981Z,100.00
2023-05-17T23:03:56.025Z,100.00
2023-05-17T23:07:05.234Z,100.00
2023-05-17T23:10:10.016Z,100.00
2023-05-17T23:13:14.035Z,100.00
2023-05-17T23:16:16.812Z,100.00
2023-05-17T23:19:21.209Z,100.00
2023-05-17T23:22:24.197Z,100.00
2023-05-17T23:25:29.010Z,100.00
2023-05-17T23:28:32.067Z,100.00
2023-05-17T23:31:35.160Z,100.00
2023-05-17T23:34:37.943Z,100.00
2023-05-17T23:37:40.911Z,100.00
2023-05-17T23:40:43.877Z,100.00
2023-05-17T23:43:47.059Z,100.00
2023-05-17T23:46:51.397Z,100.00
2023-05-17T23:49:55.242Z,100.00
2023-05-17T23:52:58.077Z,100.00
2023-05-17T23:56:01.380Z,100.00
2023-05-17T23:59:04.169Z,100.00
